createdAt,value
2023-03-25T00:04:05.000Z,11.40
2023-03-25T00:09:20.940Z,11.40
2023-03-25T00:14:36.822Z,11.60
2023-03-25T00:19:52.685Z,11.60
2023-03-25T00:25:11.216Z,11.40
2023-03-25T00:30:27.100Z,11.20
2023-03-25T00:35:46.123Z,11.00
2023-03-25T00:41:17.799Z,10.90
2023-03-25T00:46:34.542Z,10.70
2023-03-25T00:51:53.013Z,10.60
2023-03-25T00:57:09.859Z,10.70
2023-03-25T01:02:25.864Z,10.60
2023-03-25T01:07:42.319Z,10.70
2023-03-25T01:12:57.937Z,10.90
2023-03-25T01:18:13.305Z,10.70
2023-03-25T01:23:29.285Z,10.70
2023-03-25T01:28:45.997Z,10.60
2023-03-25T01:34:02.006Z,10.70
2023-03-25T01:39:19.258Z,10.70
2023-03-25T01:44:34.931Z,10.60
2023-03-25T01:49:50.862Z,10.50
2023-03-25T01:55:08.084Z,10.40
2023-03-25T02:00:24.262Z,10.50
2023-03-25T02:05:59.066Z,10.30
2023-03-25T02:11:14.738Z,10.30
2023-03-25T02:16:45.655Z,10.40
2023-03-25T02:22:38.071Z,10.40
2023-03-25T02:28:03.714Z,10.30
2023-03-25T02:33:25.594Z,10.20
2023-03-25T02:39:05.962Z,10.20
2023-03-25T02:44:39.814Z,10.00
2023-03-25T02:50:07.916Z,10.10
2023-03-25T02:55:25.752Z,10.00
2023-03-25T03:00:43.317Z,9.70
2023-03-25T03:06:04.916Z,9.60
2023-03-25T03:11:29.395Z,9.50
2023-03-25T03:17:38.591Z,9.40
2023-03-25T03:23:15.018Z,9.30
2023-03-25T03:29:06.162Z,9.30
2023-03-25T03:34:34.789Z,9.30
2023-03-25T03:39:53.758Z,9.30
2023-03-25T03:45:25.678Z,9.10
2023-03-25T03:50:53.260Z,9.10
2023-03-25T03:56:26.012Z,9.10
2023-03-25T04:01:54.307Z,9.20
2023-03-25T04:07:10.994Z,9.20
2023-03-25T04:12:32.733Z,9.10
2023-03-25T04:17:48.744Z,9.10
2023-03-25T04:23:05.410Z,9.20
2023-03-25T04:28:21.958Z,9.10
2023-03-25T04:33:37.571Z,9.20
2023-03-25T04:38:53.326Z,9.20
2023-03-25T04:44:09.277Z,9.40
2023-03-25T04:49:25.333Z,9.40
2023-03-25T04:54:41.416Z,9.50
2023-03-25T04:59:57.416Z,9.50
2023-03-25T05:05:18.793Z,9.50
2023-03-25T05:10:36.642Z,9.40
2023-03-25T05:15:52.504Z,9.50
2023-03-25T05:21:08.736Z,9.40
2023-03-25T05:26:34.391Z,9.40
2023-03-25T05:31:50.074Z,9.50
2023-03-25T05:37:06.092Z,9.50
2023-03-25T05:42:23.247Z,9.50
2023-03-25T05:47:40.472Z,9.60
2023-03-25T05:52:57.819Z,9.60
2023-03-25T05:58:13.523Z,9.60
2023-03-25T06:03:29.568Z,9.50
2023-03-25T06:08:47.243Z,9.50
2023-03-25T06:14:02.947Z,9.30
2023-03-25T06:19:18.919Z,9.30
2023-03-25T06:24:35.741Z,9.40
2023-03-25T06:29:51.066Z,9.60
2023-03-25T06:35:09.676Z,9.60
2023-03-25T06:40:26.206Z,9.70
2023-03-25T06:45:42.611Z,9.80
2023-03-25T06:50:58.100Z,9.90
2023-03-25T06:56:14.071Z,9.60
2023-03-25T07:01:29.529Z,9.80
2023-03-25T07:06:45.325Z,9.80
2023-03-25T07:12:02.166Z,9.80
2023-03-25T07:17:17.865Z,9.80
2023-03-25T07:22:33.960Z,9.70
2023-03-25T07:27:49.688Z,9.50
2023-03-25T07:33:06.338Z,9.70
2023-03-25T07:38:22.029Z,9.50
2023-03-25T07:43:38.967Z,9.60
2023-03-25T07:48:55.271Z,9.70
2023-03-25T07:54:11.562Z,9.60
2023-03-25T07:59:29.271Z,9.60
2023-03-25T08:04:46.680Z,9.60
2023-03-25T08:10:02.889Z,9.60
2023-03-25T08:15:18.699Z,9.80
2023-03-25T08:20:36.193Z,10.00
2023-03-25T08:25:53.817Z,9.90
2023-03-25T08:31:09.841Z,9.70
2023-03-25T08:36:25.972Z,9.60
2023-03-25T08:41:41.834Z,9.40
2023-03-25T08:46:57.864Z,9.40
2023-03-25T08:52:18.044Z,9.20
2023-03-25T08:57:36.604Z,9.00
2023-03-25T09:02:52.725Z,9.10
2023-03-25T09:08:09.892Z,9.30
2023-03-25T09:13:26.347Z,9.20
2023-03-25T09:18:42.313Z,9.10
2023-03-25T09:23:58.264Z,8.90
2023-03-25T09:29:14.289Z,8.90
2023-03-25T09:34:31.276Z,8.80
2023-03-25T09:39:46.900Z,8.60
2023-03-25T09:45:12.011Z,8.40
2023-03-25T09:50:32.376Z,8.10
2023-03-25T09:55:49.475Z,8.10
2023-03-25T10:01:28.456Z,8.20
2023-03-25T10:07:13.735Z,8.50
2023-03-25T10:12:35.643Z,8.60
2023-03-25T10:18:05.166Z,8.60
2023-03-25T10:23:32.696Z,8.70
2023-03-25T10:28:58.411Z,8.70
2023-03-25T10:34:20.145Z,8.70
2023-03-25T10:39:42.874Z,8.80
2023-03-25T10:44:58.775Z,8.70
2023-03-25T10:50:17.444Z,8.60
2023-03-25T10:55:38.071Z,8.50
2023-03-25T11:00:53.778Z,8.60
2023-03-25T11:06:24.477Z,8.60
2023-03-25T11:11:41.934Z,8.90
2023-03-25T11:17:04.231Z,9.00
2023-03-25T11:22:25.375Z,10.00
2023-03-25T11:27:48.246Z,11.10
2023-03-25T11:33:13.403Z,11.40
2023-03-25T11:38:34.858Z,11.50
2023-03-25T11:43:51.181Z,11.30
2023-03-25T11:49:19.738Z,11.30
2023-03-25T11:54:37.876Z,11.20
2023-03-25T12:00:13.145Z,11.10
2023-03-25T12:05:29.383Z,11.20
2023-03-25T12:11:16.937Z,11.10
2023-03-25T12:16:45.008Z,11.50
2023-03-25T12:22:03.798Z,11.80
2023-03-25T12:27:25.429Z,12.00
2023-03-25T12:33:22.246Z,11.80
2023-03-25T12:38:47.070Z,11.60
2023-03-25T12:44:29.795Z,11.60
2023-03-25T12:49:48.658Z,11.30
2023-03-25T12:55:32.363Z,11.30
2023-03-25T13:01:04.203Z,11.30
2023-03-25T13:06:23.150Z,10.90
2023-03-25T13:11:46.039Z,10.70
2023-03-25T13:17:07.692Z,10.60
2023-03-25T13:22:29.533Z,10.70
2023-03-25T13:27:46.957Z,10.80
2023-03-25T13:33:45.236Z,10.90
2023-03-25T13:39:16.536Z,10.80
2023-03-25T13:44:39.569Z,10.80
2023-03-25T13:50:14.789Z,10.80
2023-03-25T13:55:43.201Z,10.80
2023-03-25T14:01:28.925Z,10.70
2023-03-25T14:07:12.600Z,10.70
2023-03-25T14:12:42.967Z,10.70
2023-03-25T14:18:00.409Z,10.60
2023-03-25T14:23:23.129Z,10.60
2023-03-25T14:28:45.278Z,10.70
2023-03-25T14:34:04.124Z,10.70
2023-03-25T14:39:40.384Z,10.80
2023-03-25T14:45:32.474Z,10.80
2023-03-25T14:50:54.461Z,10.80
2023-03-25T14:56:18.811Z,10.80
2023-03-25T15:01:37.366Z,10.80
2023-03-25T15:06:53.626Z,10.60
2023-03-25T15:12:16.213Z,10.50
2023-03-25T15:17:49.502Z,10.50
2023-03-25T15:23:31.920Z,10.60
2023-03-25T15:29:13.027Z,10.70
2023-03-25T15:35:03.876Z,10.80
2023-03-25T15:40:46.578Z,10.80
2023-03-25T15:46:27.414Z,11.00
2023-03-25T15:51:54.753Z,11.50
2023-03-25T15:57:26.701Z,11.80
2023-03-25T16:03:02.145Z,11.70
2023-03-25T16:08:36.905Z,11.50
2023-03-25T16:14:13.864Z,11.30
2023-03-25T16:19:49.686Z,11.20
2023-03-25T16:25:14.647Z,11.00
2023-03-25T16:30:33.947Z,11.00
2023-03-25T16:36:00.212Z,10.80
2023-03-25T16:41:16.767Z,10.50
2023-03-25T16:46:33.317Z,10.30
2023-03-25T16:51:52.168Z,10.20
2023-03-25T16:57:09.275Z,10.30
2023-03-25T17:02:42.074Z,10.10
2023-03-25T17:07:59.808Z,9.90
2023-03-25T17:13:24.792Z,9.70
2023-03-25T17:18:41.057Z,9.60
2023-03-25T17:24:02.869Z,9.30
2023-03-25T17:29:18.649Z,9.00
2023-03-25T17:34:42.840Z,8.80
2023-03-25T17:40:06.964Z,8.80
2023-03-25T17:45:24.623Z,8.60
2023-03-25T17:50:53.257Z,8.40
2023-03-25T17:56:13.118Z,8.20
2023-03-25T18:01:31.119Z,8.10
2023-03-25T18:06:47.864Z,8.00
2023-03-25T18:12:03.746Z,7.90
2023-03-25T18:17:19.894Z,7.90
2023-03-25T18:22:37.018Z,7.80
2023-03-25T18:27:55.153Z,7.70
2023-03-25T18:33:11.385Z,7.60
2023-03-25T18:38:28.061Z,7.60
2023-03-25T18:43:44.408Z,7.40
2023-03-25T18:49:02.905Z,7.30
2023-03-25T18:54:18.790Z,7.20
2023-03-25T18:59:34.577Z,7.20
2023-03-25T19:05:00.050Z,7.10
2023-03-25T19:10:26.068Z,7.00
2023-03-25T19:15:43.325Z,6.90
2023-03-25T19:21:00.798Z,6.80
2023-03-25T19:26:16.576Z,6.80
2023-03-25T19:31:32.435Z,6.70
2023-03-25T19:36:48.383Z,6.50
2023-03-25T19:42:04.548Z,6.40
2023-03-25T19:47:20.543Z,6.40
2023-03-25T19:52:36.587Z,6.50
2023-03-25T19:57:53.292Z,6.50
2023-03-25T20:03:08.876Z,6.50
2023-03-25T20:08:26.013Z,6.30
2023-03-25T20:13:42.338Z,6.10
2023-03-25T20:18:58.216Z,6.00
2023-03-25T20:24:14.028Z,6.00
2023-03-25T20:29:30.140Z,5.90
2023-03-25T20:34:46.188Z,5.80
2023-03-25T20:40:01.988Z,5.90
2023-03-25T20:45:20.242Z,5.80
2023-03-25T20:50:36.348Z,5.80
2023-03-25T20:55:52.099Z,5.80
2023-03-25T21:01:08.326Z,5.60
2023-03-25T21:06:27.960Z,5.50
2023-03-25T21:11:44.595Z,5.30
2023-03-25T21:17:00.693Z,5.20
2023-03-25T21:22:16.805Z,5.20
2023-03-25T21:27:39.472Z,5.20
2023-03-25T21:32:56.579Z,5.10
2023-03-25T21:38:12.485Z,5.10
2023-03-25T21:43:27.964Z,5.30
2023-03-25T21:48:45.224Z,5.00
2023-03-25T21:54:01.151Z,4.80
2023-03-25T21:59:17.086Z,4.80
2023-03-25T22:04:34.074Z,4.80
2023-03-25T22:09:50.148Z,4.80
2023-03-25T22:15:07.364Z,4.70
2023-03-25T22:20:23.901Z,4.70
2023-03-25T22:25:39.782Z,4.70
2023-03-25T22:30:55.398Z,4.70
2023-03-25T22:36:14.558Z,4.80
2023-03-25T22:41:30.922Z,4.70
2023-03-25T22:46:48.721Z,4.60
2023-03-25T22:52:06.040Z,4.50
2023-03-25T22:57:22.003Z,4.40
2023-03-25T23:02:38.041Z,4.40
2023-03-25T23:07:53.956Z,4.40
2023-03-25T23:13:09.976Z,4.40
2023-03-25T23:18:25.837Z,4.50
2023-03-25T23:23:52.677Z,4.50
2023-03-25T23:29:11.846Z,4.60
2023-03-25T23:34:27.556Z,4.60
2023-03-25T23:39:46.510Z,4.70
2023-03-25T23:45:02.426Z,4.60
2023-03-25T23:50:18.604Z,4.60
2023-03-25T23:55:35.334Z,4.50
